Time;durP1;ratioP1;P1;durP2;ratioP2;P2;SDS_P1;SDS_P2;PMS_P1;PMS_P2;Temp;Humidity;BMP_temperature;BMP_pressure;BME280_temperature;BME280_humidity;BME280_pressure;Samples;Min_cycle;Max_cycle;Signal;HPM_P1;HPM_P2
2021/11/13 00:04:44;;;;;;;;;;;;;;;2.56;100.00;95226.03;10425340;28;20042;-71
2021/11/13 00:09:44;;;;;;;;;;;;;;;2.51;100.00;95225.84;10425929;28;20362;-72
2021/11/13 00:14:46;;;;;;;;;;;;;;;2.18;100.00;95228.63;10425171;28;19908;-76
2021/11/13 00:19:46;;;;;;;;;;;;;;;1.96;100.00;95233.34;10425340;28;20302;-72
2021/11/13 00:24:47;;;;;;;;;;;;;;;2.00;100.00;95231.91;10424825;28;19917;-72
2021/11/13 00:29:47;;;;;;;;;;;;;;;2.05;100.00;95222.31;10442429;28;20323;-72
2021/11/13 00:34:48;;;;;;;;;;;;;;;2.07;100.00;95229.25;10443015;28;19909;-76
2021/11/13 00:39:48;;;;;;;;;;;;;;;2.07;100.00;95226.59;10425076;28;20336;-74
2021/11/13 00:44:48;;;;;;;;;;;;;;;1.84;100.00;95231.34;10424614;28;19917;-71
2021/11/13 00:49:49;;;;;;;;;;;;;;;1.92;100.00;95226.84;10424380;28;19935;-71
2021/11/13 00:54:50;;;;;;;;;;;;;;;1.75;100.00;95232.56;10450207;28;20003;-76
2021/11/13 00:59:50;;;;;;;;;;;;;;;1.83;100.00;95220.94;10432624;28;20000;-72
2021/11/13 01:04:50;;;;;;;;;;;;;;;1.78;100.00;95223.38;10449884;28;20003;-72
2021/11/13 01:09:51;;;;;;;;;;;;;;;1.82;100.00;95222.75;10450177;28;20309;-73
2021/11/13 01:14:51;;;;;;;;;;;;;;;1.74;100.00;95209.72;10431617;28;19916;-71
2021/11/13 01:19:52;;;;;;;;;;;;;;;1.78;100.00;95213.59;10449393;28;19943;-73
2021/11/13 01:24:52;;;;;;;;;;;;;;;1.68;100.00;95219.31;10431647;28;19928;-73
2021/11/13 01:29:52;;;;;;;;;;;;;;;1.82;100.00;95222.75;10449802;28;20038;-79
2021/11/13 01:34:53;;;;;;;;;;;;;;;2.02;100.00;95211.31;10431337;28;20490;-74
2021/11/13 01:39:53;;;;;;;;;;;;;;;2.28;100.00;95205.13;10431154;28;20567;-72
2021/11/13 01:44:53;;;;;;;;;;;;;;;2.34;100.00;95212.22;10430565;28;19913;-73
2021/11/13 01:49:54;;;;;;;;;;;;;;;2.31;100.00;95207.34;10430887;28;19920;-69
2021/11/13 01:54:54;;;;;;;;;;;;;;;2.40;100.00;95205.28;10431058;28;19908;-74
2021/11/13 01:59:54;;;;;;;;;;;;;;;2.38;100.00;95199.38;10430563;28;20037;-76
2021/11/13 02:04:55;;;;;;;;;;;;;;;2.45;100.00;95191.38;10429693;28;19924;-74
2021/11/13 02:09:55;;;;;;;;;;;;;;;2.42;100.00;95189.16;10429856;28;19970;-76
2021/11/13 02:14:56;;;;;;;;;;;;;;;2.36;100.00;95199.59;10429935;28;19912;-75
2021/11/13 02:19:56;;;;;;;;;;;;;;;2.20;100.00;95200.84;10447979;28;19912;-76
2021/11/13 02:24:56;;;;;;;;;;;;;;;2.19;100.00;95199.25;10430241;28;20378;-73
2021/11/13 02:29:57;;;;;;;;;;;;;;;2.21;100.00;95199.03;10431054;28;19918;-72
2021/11/13 02:34:57;;;;;;;;;;;;;;;2.25;100.00;95196.75;10428930;28;19909;-75
2021/11/13 02:39:57;;;;;;;;;;;;;;;2.26;100.00;95195.75;10428852;28;19916;-76
2021/11/13 02:44:58;;;;;;;;;;;;;;;2.38;100.00;95194.06;10429177;28;20367;-76
2021/11/13 02:49:58;;;;;;;;;;;;;;;2.34;100.00;95195.50;10428440;28;20390;-71
2021/11/13 02:54:58;;;;;;;;;;;;;;;2.35;100.00;95197.94;10428432;28;19916;-76
2021/11/13 02:59:59;;;;;;;;;;;;;;;2.35;100.00;95200.59;10445847;28;19916;-76
2021/11/13 03:04:59;;;;;;;;;;;;;;;2.31;100.00;95201.25;10427594;28;19924;-75
2021/11/13 03:09:59;;;;;;;;;;;;;;;2.16;100.00;95199.66;10428431;28;19982;-73
2021/11/13 03:15:05;;;;;;;;;;;;;;;2.25;100.00;95200.25;10426895;28;19908;-76
2021/11/13 03:20:06;;;;;;;;;;;;;;;2.19;100.00;95209.84;10445090;28;19909;-72
2021/11/13 03:25:10;;;;;;;;;;;;;;;2.01;100.00;95207.84;10426918;28;19920;-73
2021/11/13 03:30:11;;;;;;;;;;;;;;;1.78;100.00;95210.94;10427295;28;20371;-71
2021/11/13 03:35:16;;;;;;;;;;;;;;;1.74;100.00;95207.06;10427070;28;19950;-73
2021/11/13 03:40:16;;;;;;;;;;;;;;;1.71;100.00;95218.91;10427437;28;19970;-77
2021/11/13 03:45:17;;;;;;;;;;;;;;;1.63;100.00;95215.66;10443729;28;20388;-72
2021/11/13 03:50:17;;;;;;;;;;;;;;;1.53;100.00;95206.31;10426444;28;19912;-74
2021/11/13 03:55:17;;;;;;;;;;;;;;;1.65;100.00;95205.69;10425857;28;19912;-74
2021/11/13 04:00:19;;;;;;;;;;;;;;;1.68;100.00;95205.25;10425878;28;19927;-80
2021/11/13 04:05:21;;;;;;;;;;;;;;;1.70;100.00;95205.84;10426133;28;19927;-73
2021/11/13 04:10:21;;;;;;;;;;;;;;;1.79;100.00;95209.94;10426753;28;20325;-77
2021/11/13 04:15:21;;;;;;;;;;;;;;;1.83;100.00;95213.00;10425681;28;19909;-77
2021/11/13 04:20:22;;;;;;;;;;;;;;;1.78;100.00;95200.34;10425790;28;20330;-81
2021/11/13 04:25:22;;;;;;;;;;;;;;;1.81;100.00;95204.41;10424505;28;19912;-77
2021/11/13 04:30:22;;;;;;;;;;;;;;;1.69;100.00;95210.34;10425376;28;19913;-74
2021/11/13 04:35:34;;;;;;;;;;;;;;;1.74;100.00;95211.56;10425203;28;19909;-73
2021/11/13 04:40:36;;;;;;;;;;;;;;;1.73;100.00;95215.22;10424777;28;19995;-77
2021/11/13 04:45:36;;;;;;;;;;;;;;;1.76;100.00;95228.91;10424742;28;19926;-76
2021/11/13 04:50:36;;;;;;;;;;;;;;;1.83;100.00;95220.94;10425546;28;20263;-74
2021/11/13 04:55:37;;;;;;;;;;;;;;;1.89;100.00;95225.41;10442417;28;20306;-74
2021/11/13 05:00:37;;;;;;;;;;;;;;;1.99;100.00;95230.28;10442144;28;19917;-78
2021/11/13 05:05:38;;;;;;;;;;;;;;;1.77;100.00;95233.16;10423959;28;19917;-77
2021/11/13 05:10:38;;;;;;;;;;;;;;;1.41;100.00;95237.06;10424392;28;19916;-73
2021/11/13 05:15:38;;;;;;;;;;;;;;;1.38;100.00;95242.75;10424824;28;19944;-76
2021/11/13 05:20:39;;;;;;;;;;;;;;;1.40;100.00;95245.22;10423958;28;19915;-77
2021/11/13 05:25:39;;;;;;;;;;;;;;;1.45;100.00;95248.88;10423964;28;20782;-73
2021/11/13 05:30:39;;;;;;;;;;;;;;;1.45;100.00;95240.94;10423851;28;19916;-73
2021/11/13 05:35:40;;;;;;;;;;;;;;;1.45;100.00;95254.19;10423369;28;20175;-75
2021/11/13 05:40:40;;;;;;;;;;;;;;;1.40;100.00;95247.88;10430621;28;19992;-73
2021/11/13 05:45:41;;;;;;;;;;;;;;;1.42;100.00;95256.41;10430302;28;19912;-76
2021/11/13 05:50:41;;;;;;;;;;;;;;;1.51;100.00;95258.66;10430737;28;19962;-74
2021/11/13 05:55:42;;;;;;;;;;;;;;;1.47;100.00;95261.91;10430973;28;19956;-79
2021/11/13 06:00:42;;;;;;;;;;;;;;;1.41;100.00;95266.19;10429583;28;19916;-75
2021/11/13 06:05:43;;;;;;;;;;;;;;;1.33;100.00;95263.75;10430139;28;19920;-77
2021/11/13 06:10:43;;;;;;;;;;;;;;;1.48;100.00;95271.47;10429722;28;19909;-76
2021/11/13 06:15:43;;;;;;;;;;;;;;;1.59;100.00;95270.06;10429912;28;20235;-77
2021/11/13 06:20:44;;;;;;;;;;;;;;;1.70;100.00;95278.22;10429292;28;19908;-75
2021/11/13 06:25:44;;;;;;;;;;;;;;;1.82;100.00;95286.38;10428991;28;19974;-73
2021/11/13 06:30:44;;;;;;;;;;;;;;;1.97;100.00;95277.41;10447666;28;19909;-72
2021/11/13 06:35:44;;;;;;;;;;;;;;;2.17;100.00;95278.16;10428783;28;19909;-77
2021/11/13 06:40:45;;;;;;;;;;;;;;;2.24;100.00;95272.06;10428709;28;19909;-75
2021/11/13 06:45:45;;;;;;;;;;;;;;;2.42;100.00;95268.75;10428409;28;20370;-77
2021/11/13 06:50:46;;;;;;;;;;;;;;;2.75;100.00;95276.59;10427274;28;19912;-77
2021/11/13 06:55:48;;;;;;;;;;;;;;;2.97;100.00;95276.28;10428358;28;20438;-77
2021/11/13 07:00:48;;;;;;;;;;;;;;;3.25;100.00;95275.91;10428088;28;19916;-78
2021/11/13 07:05:48;;;;;;;;;;;;;;;3.45;100.00;95278.47;10427289;28;19916;-75
2021/11/13 07:10:52;;;;;;;;;;;;;;;3.75;100.00;95270.69;10426975;28;20464;-74
2021/11/13 07:15:53;;;;;;;;;;;;;;;4.12;100.00;95267.28;10445813;28;20382;-73
2021/11/13 07:20:58;;;;;;;;;;;;;;;4.87;100.00;95265.44;10427283;28;19908;-79
2021/11/13 07:26:00;;;;;;;;;;;;;;;5.35;100.00;95264.59;10427148;28;19990;-78
2021/11/13 07:31:01;;;;;;;;;;;;;;;5.73;100.00;95259.94;10426832;28;20101;-74
2021/11/13 07:36:04;;;;;;;;;;;;;;;6.58;100.00;95255.22;10426894;28;20859;-77
2021/11/13 07:41:05;;;;;;;;;;;;;;;8.09;93.05;95252.34;10426507;28;20348;-74
2021/11/13 07:46:06;;;;;;;;;;;;;;;9.23;78.11;95250.91;10426023;28;19913;-74
2021/11/13 07:51:06;;;;;;;;;;;;;;;9.63;70.52;95248.91;10425908;28;19923;-75
2021/11/13 07:56:06;;;;;;;;;;;;;;;10.13;65.14;95254.13;10450257;28;19969;-74
2021/11/13 08:01:07;;;;;;;;;;;;;;;11.06;62.13;95256.31;10440660;28;19920;-75
2021/11/13 08:06:07;;;;;;;;;;;;;;;12.16;55.47;95242.00;10412535;28;19932;-73
2021/11/13 08:11:07;;;;;;;;;;;;;;;12.22;53.19;95247.09;10399791;28;20436;-75
2021/11/13 08:16:08;;;;;;;;;;;;;;;12.25;53.27;95246.59;10403515;28;19965;-73
2021/11/13 08:21:08;;;;;;;;;;;;;;;11.02;53.65;95249.84;10441163;28;20389;-73
2021/11/13 08:26:09;;;;;;;;;;;;;;;10.92;57.36;95242.53;10439959;28;20472;-76
2021/11/13 08:31:09;;;;;;;;;;;;;;;10.89;59.42;95237.69;10429832;28;19913;-72
2021/11/13 08:36:10;;;;;;;;;;;;;;;11.18;56.86;95247.22;10458823;23;20037;-80
2021/11/13 08:41:10;;;;;;;;;;;;;;;11.56;56.69;95234.41;10438816;28;19982;-73
2021/11/13 08:46:10;;;;;;;;;;;;;;;11.71;53.87;95239.00;10440070;28;19908;-75
2021/11/13 08:51:11;;;;;;;;;;;;;;;11.60;54.14;95222.03;10422617;28;19913;-75
2021/11/13 08:56:11;;;;;;;;;;;;;;;12.25;55.75;95216.13;10438130;28;19919;-78
2021/11/13 09:01:11;;;;;;;;;;;;;;;12.82;51.51;95206.81;10438108;28;19908;-73
2021/11/13 09:06:15;;;;;;;;;;;;;;;13.16;49.42;95199.94;10436465;28;19999;-78
2021/11/13 09:11:19;;;;;;;;;;;;;;;12.37;49.11;95202.38;10356159;28;19921;-75
2021/11/13 09:16:19;;;;;;;;;;;;;;;13.04;49.86;95202.94;10365596;28;19913;-77
2021/11/13 09:21:21;;;;;;;;;;;;;;;13.54;47.29;95192.16;10364838;28;19920;-74
2021/11/13 09:26:22;;;;;;;;;;;;;;;14.11;45.17;95186.34;10366378;28;19913;-75
2021/11/13 09:31:23;;;;;;;;;;;;;;;14.53;44.33;95174.81;10364387;28;19983;-78
2021/11/13 09:36:23;;;;;;;;;;;;;;;14.86;43.84;95172.31;10380600;28;20437;-73
2021/11/13 09:41:23;;;;;;;;;;;;;;;15.03;42.50;95168.31;10363554;28;19918;-74
2021/11/13 09:46:25;;;;;;;;;;;;;;;15.73;41.48;95159.44;10368526;28;19932;-77
2021/11/13 09:51:26;;;;;;;;;;;;;;;16.02;40.70;95144.13;10405532;28;19943;-76
2021/11/13 09:56:27;;;;;;;;;;;;;;;16.24;40.25;95143.44;10375247;28;19959;-74
2021/11/13 10:01:27;;;;;;;;;;;;;;;16.76;39.83;95135.16;10363236;28;19960;-76
2021/11/13 10:06:28;;;;;;;;;;;;;;;18.64;36.27;95123.13;10379499;28;20008;-75
2021/11/13 10:11:28;;;;;;;;;;;;;;;21.63;32.45;95116.81;10363875;28;19917;-77
2021/11/13 10:16:28;;;;;;;;;;;;;;;24.25;27.73;95090.59;10364931;28;20322;-76
2021/11/13 10:21:29;;;;;;;;;;;;;;;25.24;25.51;95087.09;10428645;28;19973;-80
2021/11/13 10:26:40;;;;;;;;;;;;;;;25.82;24.90;95078.13;10443347;28;19916;-74
2021/11/13 10:31:48;;;;;;;;;;;;;;;27.56;24.12;95059.75;10444548;28;20437;-77
2021/11/13 10:36:53;;;;;;;;;;;;;;;28.36;21.76;95045.66;10446355;28;19917;-75
2021/11/13 10:41:54;;;;;;;;;;;;;;;28.36;21.90;95042.91;10444662;28;19920;-77
2021/11/13 10:46:55;;;;;;;;;;;;;;;28.95;21.08;95043.00;10444904;28;20386;-78
2021/11/13 10:51:58;;;;;;;;;;;;;;;28.94;21.36;95043.38;10443212;28;20004;-74
2021/11/13 10:57:00;;;;;;;;;;;;;;;29.43;21.07;95031.06;10444147;28;19916;-73
2021/11/13 11:02:04;;;;;;;;;;;;;;;28.12;21.72;95030.44;10444055;28;19916;-75
2021/11/13 11:07:06;;;;;;;;;;;;;;;28.56;21.46;95026.09;10376785;28;19918;-75
2021/11/13 11:12:28;;;;;;;;;;;;;;;28.57;21.34;95016.63;10401865;28;20008;-76
2021/11/13 11:17:29;;;;;;;;;;;;;;;29.88;20.08;95003.16;10422084;28;19909;-75
2021/11/13 11:22:29;;;;;;;;;;;;;;;29.22;21.26;95003.22;10406311;28;19917;-75
2021/11/13 11:27:34;;;;;;;;;;;;;;;28.04;21.53;95001.94;10403037;28;19913;-80
2021/11/13 11:32:44;;;;;;;;;;;;;;;24.69;23.38;95001.81;10401061;28;19909;-75
2021/11/13 11:37:46;;;;;;;;;;;;;;;22.80;26.22;95003.41;10420436;28;19916;-78
2021/11/13 11:42:48;;;;;;;;;;;;;;;20.91;28.32;95005.53;10436492;28;20339;-79
2021/11/13 11:47:49;;;;;;;;;;;;;;;17.91;30.92;95004.59;10442798;28;19909;-74
2021/11/13 11:52:51;;;;;;;;;;;;;;;16.69;35.22;95012.63;10441493;28;19915;-76
2021/11/13 11:58:14;;;;;;;;;;;;;;;15.79;35.05;95004.91;10422776;28;19912;-75
2021/11/13 12:03:35;;;;;;;;;;;;;;;15.80;36.43;95001.94;10355631;28;20350;-76
2021/11/13 12:08:38;;;;;;;;;;;;;;;14.72;37.56;95000.97;10357754;28;19909;-75
2021/11/13 12:13:39;;;;;;;;;;;;;;;14.71;38.02;95004.75;10357787;28;19916;-77
2021/11/13 12:18:45;;;;;;;;;;;;;;;14.37;37.32;95000.31;10358946;28;20314;-78
2021/11/13 12:23:48;;;;;;;;;;;;;;;14.58;37.72;94984.63;10357175;28;19921;-77
2021/11/13 12:28:48;;;;;;;;;;;;;;;14.77;38.07;94975.72;10358341;28;19968;-76
2021/11/13 12:34:09;;;;;;;;;;;;;;;14.98;37.86;94970.81;10385394;28;19957;-75
2021/11/13 12:39:11;;;;;;;;;;;;;;;14.99;38.25;94972.41;10440982;28;20408;-73
2021/11/13 12:44:18;;;;;;;;;;;;;;;15.00;38.23;94972.13;10439612;28;19917;-78
2021/11/13 12:49:19;;;;;;;;;;;;;;;15.02;38.88;94966.41;10447858;28;19909;-77
2021/11/13 12:54:24;;;;;;;;;;;;;;;15.10;38.44;94962.22;10448109;28;19912;-75
2021/11/13 12:59:27;;;;;;;;;;;;;;;15.13;39.01;94957.03;10449497;28;19991;-79
2021/11/13 13:04:32;;;;;;;;;;;;;;;15.15;38.86;94954.84;10442237;28;19919;-78
2021/11/13 13:09:34;;;;;;;;;;;;;;;15.11;38.99;94953.00;10447939;28;19912;-76
2021/11/13 13:14:35;;;;;;;;;;;;;;;15.08;39.33;94950.88;10444922;28;19919;-75
2021/11/13 13:19:37;;;;;;;;;;;;;;;15.03;39.71;94959.91;10368440;28;19913;-77
2021/11/13 13:24:38;;;;;;;;;;;;;;;14.92;39.57;94959.25;10382407;28;19944;-76
2021/11/13 13:29:41;;;;;;;;;;;;;;;14.83;40.86;94955.59;10366466;28;19916;-79
2021/11/13 13:34:48;;;;;;;;;;;;;;;14.76;40.50;94953.25;10365095;28;19929;-79
2021/11/13 13:39:49;;;;;;;;;;;;;;;14.61;41.32;94934.53;10365686;28;19967;-75
2021/11/13 13:44:55;;;;;;;;;;;;;;;14.55;41.25;94941.13;10365169;28;20422;-74
2021/11/13 13:49:57;;;;;;;;;;;;;;;14.42;42.24;94946.16;10371639;28;19962;-75
2021/11/13 13:54:57;;;;;;;;;;;;;;;14.28;42.71;94940.69;10441153;28;19909;-69
2021/11/13 14:00:00;;;;;;;;;;;;;;;14.14;43.76;94935.19;10437979;28;20313;-76
2021/11/13 14:05:01;;;;;;;;;;;;;;;13.94;44.54;94933.56;10448083;28;19916;-72
2021/11/13 14:10:04;;;;;;;;;;;;;;;13.77;45.12;94933.22;10445646;28;19909;-77
2021/11/13 14:15:09;;;;;;;;;;;;;;;13.55;45.51;94925.63;10445387;28;20495;-73
2021/11/13 14:20:15;;;;;;;;;;;;;;;13.44;46.42;94919.56;10446280;28;19959;-72
2021/11/13 14:25:15;;;;;;;;;;;;;;;13.37;47.93;94924.47;10445499;28;19970;-75
2021/11/13 14:30:16;;;;;;;;;;;;;;;13.20;48.76;94924.88;10445931;28;19917;-75
2021/11/13 14:35:17;;;;;;;;;;;;;;;13.08;48.96;94925.28;10410822;28;19909;-74
2021/11/13 14:40:18;;;;;;;;;;;;;;;12.93;49.68;94935.09;10419875;28;19957;-72
2021/11/13 14:45:26;;;;;;;;;;;;;;;12.78;51.34;94941.44;10404473;28;20469;-78
2021/11/13 14:50:26;;;;;;;;;;;;;;;12.64;53.75;94935.88;10433202;28;20396;-74
2021/11/13 14:55:28;;;;;;;;;;;;;;;12.44;55.21;94936.81;10443519;28;19915;-75
2021/11/13 15:00:30;;;;;;;;;;;;;;;12.28;56.81;94938.81;10443723;28;19915;-74
2021/11/13 15:05:31;;;;;;;;;;;;;;;12.05;59.56;94932.19;10426436;28;19916;-74
2021/11/13 15:10:32;;;;;;;;;;;;;;;11.74;63.01;94935.00;10444455;28;19912;-79
2021/11/13 15:15:32;;;;;;;;;;;;;;;11.68;67.08;94940.66;10442582;28;19915;-74
2021/11/13 15:20:33;;;;;;;;;;;;;;;11.44;69.33;94944.78;10442093;28;19919;-77
2021/11/13 15:25:39;;;;;;;;;;;;;;;11.25;72.61;94954.53;10441052;28;19917;-79
2021/11/13 15:30:41;;;;;;;;;;;;;;;10.92;75.17;94954.00;10442136;28;19912;-75
2021/11/13 15:35:46;;;;;;;;;;;;;;;10.70;81.57;94955.09;10442074;28;19952;-75
2021/11/13 15:40:47;;;;;;;;;;;;;;;10.51;82.19;94956.69;10442884;28;20039;-74
2021/11/13 15:45:48;;;;;;;;;;;;;;;10.28;85.40;94964.13;10443295;28;20763;-75
2021/11/13 15:50:51;;;;;;;;;;;;;;;10.19;87.77;94971.09;10441055;28;19908;-75
2021/11/13 15:55:51;;;;;;;;;;;;;;;10.12;90.24;94970.53;10441001;28;20405;-74
2021/11/13 16:00:51;;;;;;;;;;;;;;;9.96;92.96;94972.34;10424917;28;19912;-74
2021/11/13 16:05:54;;;;;;;;;;;;;;;9.84;90.78;94975.28;10440312;28;19913;-75
2021/11/13 16:10:54;;;;;;;;;;;;;;;9.73;85.92;94990.53;10440020;28;19923;-75
2021/11/13 16:15:56;;;;;;;;;;;;;;;9.64;81.28;94992.09;10442099;28;19909;-73
2021/11/13 16:20:57;;;;;;;;;;;;;;;9.63;79.02;94998.50;10439834;28;19920;-80
2021/11/13 16:25:57;;;;;;;;;;;;;;;9.78;77.87;95001.25;10439534;28;20422;-74
2021/11/13 16:30:59;;;;;;;;;;;;;;;9.83;77.99;95001.31;10400997;28;19915;-75
2021/11/13 16:36:00;;;;;;;;;;;;;;;9.81;78.46;95010.69;10398220;28;20446;-81
2021/11/13 16:41:06;;;;;;;;;;;;;;;9.85;78.96;95011.78;10399861;28;19931;-79
2021/11/13 16:46:08;;;;;;;;;;;;;;;9.81;79.55;95008.81;10400275;28;19916;-76
2021/11/13 16:51:12;;;;;;;;;;;;;;;9.77;82.35;95015.78;10398421;28;19919;-77
2021/11/13 16:56:14;;;;;;;;;;;;;;;9.75;83.05;95020.59;10432826;28;19908;-78
2021/11/13 17:01:18;;;;;;;;;;;;;;;9.60;85.29;95017.81;10404995;28;19909;-75
2021/11/13 17:06:19;;;;;;;;;;;;;;;9.48;88.53;95024.19;10425747;28;19982;-76
2021/11/13 17:11:27;;;;;;;;;;;;;;;9.35;92.25;95027.31;10437846;28;20117;-74
2021/11/13 17:16:28;;;;;;;;;;;;;;;9.02;95.50;95038.06;10439636;28;19991;-78
2021/11/13 17:21:29;;;;;;;;;;;;;;;8.62;98.88;95035.84;10440507;28;19960;-75
2021/11/13 17:26:32;;;;;;;;;;;;;;;8.37;100.00;95040.66;10438646;28;20465;-75
2021/11/13 17:31:32;;;;;;;;;;;;;;;8.17;100.00;95040.44;10438623;28;19908;-75
2021/11/13 17:36:32;;;;;;;;;;;;;;;7.97;100.00;95047.16;10446019;28;20398;-78
2021/11/13 17:41:33;;;;;;;;;;;;;;;7.91;100.00;95047.34;10446397;28;20021;-74
2021/11/13 17:46:35;;;;;;;;;;;;;;;7.82;100.00;95046.97;10445351;28;20078;-74
2021/11/13 17:51:35;;;;;;;;;;;;;;;7.68;100.00;95046.50;10426602;28;20008;-75
2021/11/13 17:56:36;;;;;;;;;;;;;;;7.63;100.00;95044.59;10442453;28;19912;-77
2021/11/13 18:01:40;;;;;;;;;;;;;;;7.57;100.00;95048.22;10444873;28;19912;-76
2021/11/13 18:06:40;;;;;;;;;;;;;;;7.58;100.00;95049.06;10462288;28;19916;-75
2021/11/13 18:11:41;;;;;;;;;;;;;;;7.56;100.00;95059.97;10445919;28;20386;-75
2021/11/13 18:16:41;;;;;;;;;;;;;;;7.56;100.00;95056.50;10445351;28;19908;-78
2021/11/13 18:21:42;;;;;;;;;;;;;;;7.50;100.00;95050.28;10444456;28;19908;-75
2021/11/13 18:26:42;;;;;;;;;;;;;;;7.41;100.00;95057.91;10404038;28;19919;-75
2021/11/13 18:31:44;;;;;;;;;;;;;;;7.30;100.00;95053.47;10405195;28;19913;-74
2021/11/13 18:36:44;;;;;;;;;;;;;;;7.07;100.00;95060.56;10386827;28;19989;-74
2021/11/13 18:41:44;;;;;;;;;;;;;;;6.97;100.00;95055.06;10404812;28;19981;-76
2021/11/13 18:46:45;;;;;;;;;;;;;;;6.74;100.00;95064.84;10401720;28;19913;-75
2021/11/13 18:51:45;;;;;;;;;;;;;;;6.70;100.00;95076.25;10403898;28;19913;-77
2021/11/13 18:56:54;;;;;;;;;;;;;;;6.62;100.00;95070.25;10402371;28;20342;-79
2021/11/13 19:01:55;;;;;;;;;;;;;;;6.70;100.00;95071.72;10402249;28;20366;-79
2021/11/13 19:06:55;;;;;;;;;;;;;;;6.62;100.00;95069.44;10418830;28;19921;-78
2021/11/13 19:11:59;;;;;;;;;;;;;;;6.62;100.00;95072.91;10403039;28;19909;-79
2021/11/13 19:17:02;;;;;;;;;;;;;;;6.55;100.00;95082.13;10418122;28;20416;-75
2021/11/13 19:22:04;;;;;;;;;;;;;;;6.47;100.00;95077.97;10409088;28;20537;-75
2021/11/13 19:27:09;;;;;;;;;;;;;;;6.45;100.00;95074.75;10361257;28;19977;-74
2021/11/13 19:32:09;;;;;;;;;;;;;;;6.37;100.00;95089.28;10366604;28;19920;-74
2021/11/13 19:37:11;;;;;;;;;;;;;;;6.05;100.00;95099.59;10401816;28;20403;-78
2021/11/13 19:42:12;;;;;;;;;;;;;;;5.84;100.00;95100.97;10401091;28;20004;-75
2021/11/13 19:47:13;;;;;;;;;;;;;;;5.88;100.00;95104.81;10417033;28;19917;-75
2021/11/13 19:52:14;;;;;;;;;;;;;;;5.52;100.00;95104.81;10400577;28;19916;-76
2021/11/13 19:57:15;;;;;;;;;;;;;;;5.51;100.00;95103.19;10392729;28;19916;-78
2021/11/13 20:02:15;;;;;;;;;;;;;;;5.39;100.00;95116.53;10359548;28;20405;-73
2021/11/13 20:07:16;;;;;;;;;;;;;;;5.33;100.00;95116.63;10417592;28;19912;-73
2021/11/13 20:12:16;;;;;;;;;;;;;;;5.22;100.00;95113.72;10425745;28;20007;-75
2021/11/13 20:17:17;;;;;;;;;;;;;;;5.09;100.00;95108.59;10417224;28;20269;-73
2021/11/13 20:22:19;;;;;;;;;;;;;;;5.02;100.00;95105.22;10416250;28;19911;-73
2021/11/13 20:27:20;;;;;;;;;;;;;;;4.71;100.00;95115.13;10434776;28;19912;-74
2021/11/13 20:32:20;;;;;;;;;;;;;;;4.85;100.00;95111.22;10364830;28;19917;-75
2021/11/13 20:37:25;;;;;;;;;;;;;;;4.77;100.00;95108.88;10398995;28;19921;-74
2021/11/13 20:42:26;;;;;;;;;;;;;;;4.76;100.00;95115.25;10400025;28;19949;-75
2021/11/13 20:47:28;;;;;;;;;;;;;;;4.72;100.00;95109.56;10415748;28;19964;-74
2021/11/13 20:52:28;;;;;;;;;;;;;;;4.64;100.00;95111.75;10400595;28;20388;-75
2021/11/13 20:57:28;;;;;;;;;;;;;;;4.56;100.00;95102.22;10441800;28;20366;-75
2021/11/13 21:02:29;;;;;;;;;;;;;;;4.49;100.00;95106.81;10439581;28;20448;-74
2021/11/13 21:07:29;;;;;;;;;;;;;;;4.38;100.00;95101.22;10437980;28;19912;-76
2021/11/13 21:12:29;;;;;;;;;;;;;;;4.37;100.00;95112.91;10449576;28;19917;-75
2021/11/13 21:17:32;;;;;;;;;;;;;;;4.22;100.00;95118.59;10448264;28;19935;-74
2021/11/13 21:22:32;;;;;;;;;;;;;;;3.83;100.00;95119.88;10430737;28;20440;-74
2021/11/13 21:27:35;;;;;;;;;;;;;;;3.89;100.00;95127.81;10422964;28;19917;-75
2021/11/13 21:32:35;;;;;;;;;;;;;;;3.84;100.00;95137.47;10423458;28;19915;-78
2021/11/13 21:37:35;;;;;;;;;;;;;;;3.86;100.00;95135.41;10405796;28;19931;-77
2021/11/13 21:42:36;;;;;;;;;;;;;;;3.83;100.00;95135.84;10422232;28;20386;-79
2021/11/13 21:47:36;;;;;;;;;;;;;;;3.75;100.00;95129.78;10405883;28;19921;-77
2021/11/13 21:52:36;;;;;;;;;;;;;;;3.84;100.00;95132.97;10409527;28;19909;-77
2021/11/13 21:57:37;;;;;;;;;;;;;;;3.81;100.00;95137.91;10407007;28;19916;-75
2021/11/13 22:02:37;;;;;;;;;;;;;;;3.80;100.00;95141.59;10422047;28;19913;-77
2021/11/13 22:07:39;;;;;;;;;;;;;;;3.73;100.00;95141.66;10421702;28;20379;-75
2021/11/13 22:12:40;;;;;;;;;;;;;;;3.64;100.00;95140.31;10404539;28;19909;-76
2021/11/13 22:17:41;;;;;;;;;;;;;;;3.68;100.00;95142.31;10406477;28;20369;-76
2021/11/13 22:22:41;;;;;;;;;;;;;;;3.37;100.00;95138.72;10405186;28;19909;-79
2021/11/13 22:27:42;;;;;;;;;;;;;;;3.49;100.00;95138.00;10405087;28;19917;-75
2021/11/13 22:32:43;;;;;;;;;;;;;;;3.46;100.00;95130.47;10404887;28;20003;-77
2021/11/13 22:37:43;;;;;;;;;;;;;;;3.33;100.00;95131.41;10404270;28;20440;-77
2021/11/13 22:42:44;;;;;;;;;;;;;;;3.21;100.00;95128.63;10404343;28;20258;-75
2021/11/13 22:47:45;;;;;;;;;;;;;;;3.17;100.00;95130.91;10404835;28;20011;-75
2021/11/13 22:52:46;;;;;;;;;;;;;;;2.96;100.00;95136.56;10403283;28;19915;-75
2021/11/13 22:57:47;;;;;;;;;;;;;;;2.94;100.00;95136.00;10403287;28;20361;-77
2021/11/13 23:02:47;;;;;;;;;;;;;;;2.92;100.00;95146.84;10404746;28;19966;-79
2021/11/13 23:07:47;;;;;;;;;;;;;;;2.54;100.00;95137.88;10402415;28;19958;-75
2021/11/13 23:12:48;;;;;;;;;;;;;;;2.53;100.00;95138.09;10406354;28;19909;-76
2021/11/13 23:17:48;;;;;;;;;;;;;;;2.58;100.00;95140.91;10445497;28;19913;-79
2021/11/13 23:22:49;;;;;;;;;;;;;;;2.58;100.00;95137.44;10443457;28;19916;-74
2021/11/13 23:27:51;;;;;;;;;;;;;;;2.42;100.00;95136.13;10423558;28;19916;-75
2021/11/13 23:32:52;;;;;;;;;;;;;;;2.25;100.00;95136.59;10401585;28;19909;-76
2021/11/13 23:37:53;;;;;;;;;;;;;;;2.32;100.00;95125.97;10402148;28;19961;-74
2021/11/13 23:42:53;;;;;;;;;;;;;;;2.30;100.00;95131.47;10402952;28;19999;-77
2021/11/13 23:47:54;;;;;;;;;;;;;;;2.12;100.00;95128.69;10401427;28;19963;-76
2021/11/13 23:52:55;;;;;;;;;;;;;;;2.14;100.00;95134.59;10438992;28;19909;-74
2021/11/13 23:57:55;;;;;;;;;;;;;;;2.15;100.00;95136.22;10445463;28;19908;-74
